JBU424 KLAX-KJFK
Flight info
| Callsign | JBU424 |
|---|---|
| Flight time | 4h 27m |
| Altitude | 33000 |
| Route | ORCKA5 BEALE J146 DVC KD51W/N0442F350 OATHE KD54A MCI RBS BVT JOEBU DORET Q29 JHW Q476 WLKES PUCKY1 |
| Aircraft | A321/M-V/N |
Departure
| Time | 2026-05-05 17:25 |
|---|---|
| Airport | Los Angeles International Airport (KLAX) |
Arrival
| Time | 2026-05-05 21:52 |
|---|---|
| Airport | John F. Kennedy International Airport (KJFK) |
| Time | Latitude | Longitude | Altitude | Speed | Heading |
|---|---|---|---|---|---|
| 2026-05-05 17:09 | 33.94685 | -118.40185 | 93 ft | 0 kts | 84° |
| 2026-05-05 17:18 | 33.94682 | -118.40210 | 93 ft | 4 kts | 70° |
| 2026-05-05 17:18 | 33.94670 | -118.40235 | 93 ft | 4 kts | 39° |
| 2026-05-05 17:18 | 33.94651 | -118.40245 | 92 ft | 2 kts | 353° |
| 2026-05-05 17:18 | 33.94650 | -118.40245 | 92 ft | 0 kts | 352° |
| 2026-05-05 17:21 | 33.94654 | -118.40246 | 92 ft | 2 kts | 352° |
| 2026-05-05 17:21 | 33.94677 | -118.40250 | 95 ft | 4 kts | 352° |
| 2026-05-05 17:21 | 33.94705 | -118.40254 | 94 ft | 4 kts | 353° |
| 2026-05-05 17:22 | 33.94776 | -118.40265 | 93 ft | 7 kts | 353° |
| 2026-05-05 17:22 | 33.94829 | -118.40282 | 94 ft | 9 kts | 338° |
| 2026-05-05 17:22 | 33.94884 | -118.40277 | 96 ft | 8 kts | 42° |
| 2026-05-05 17:22 | 33.94902 | -118.40216 | 95 ft | 8 kts | 82° |
| 2026-05-05 17:23 | 33.94909 | -118.40146 | 94 ft | 9 kts | 83° |
| 2026-05-05 17:23 | 33.94917 | -118.40069 | 95 ft | 10 kts | 83° |
| 2026-05-05 17:23 | 33.94926 | -118.39983 | 93 ft | 11 kts | 82° |
| 2026-05-05 17:23 | 33.94966 | -118.39914 | 93 ft | 11 kts | 21° |
| 2026-05-05 17:24 | 33.95034 | -118.39933 | 92 ft | 10 kts | 310° |
| 2026-05-05 17:24 | 33.95037 | -118.39999 | 95 ft | 0 kts | 263° |
| 2026-05-05 17:24 | 33.95037 | -118.40001 | 95 ft | 0 kts | 263° |
| 2026-05-05 17:24 | 33.95024 | -118.40129 | 97 ft | 47 kts | 263° |
| 2026-05-05 17:25 | 33.94955 | -118.40793 | 100 ft | 111 kts | 263° |
| 2026-05-05 17:25 | 33.94882 | -118.41505 | 97 ft | 147 kts | 263° |
| 2026-05-05 17:25 | 33.94715 | -118.43281 | 759 ft | 160 kts | 263° |
| 2026-05-05 17:25 | 33.94590 | -118.44614 | 1506 ft | 160 kts | 262° |
| 2026-05-05 17:26 | 33.94460 | -118.46008 | 1822 ft | 177 kts | 263° |
| 2026-05-05 17:26 | 33.94315 | -118.47577 | 2008 ft | 200 kts | 264° |
| 2026-05-05 17:26 | 33.94154 | -118.49334 | 2189 ft | 222 kts | 264° |
| 2026-05-05 17:26 | 33.93975 | -118.51286 | 2425 ft | 244 kts | 264° |
| 2026-05-05 17:27 | 33.93784 | -118.53352 | 2965 ft | 251 kts | 264° |
| 2026-05-05 17:27 | 33.93592 | -118.55441 | 3685 ft | 252 kts | 264° |
| 2026-05-05 17:27 | 33.93397 | -118.57557 | 4368 ft | 257 kts | 264° |
| 2026-05-05 17:27 | 33.93199 | -118.59715 | 5063 ft | 260 kts | 265° |
| 2026-05-05 17:28 | 33.93067 | -118.61157 | 5512 ft | 264 kts | 264° |
| 2026-05-05 17:28 | 33.92864 | -118.63373 | 6166 ft | 268 kts | 264° |
| 2026-05-05 17:28 | 33.92657 | -118.65617 | 6788 ft | 271 kts | 265° |
| 2026-05-05 17:28 | 33.92447 | -118.67888 | 7387 ft | 275 kts | 265° |
| 2026-05-05 17:29 | 33.92234 | -118.70185 | 7985 ft | 278 kts | 265° |
| 2026-05-05 17:29 | 33.91949 | -118.73265 | 8820 ft | 281 kts | 265° |
| 2026-05-05 17:29 | 33.91796 | -118.74850 | 9249 ft | 283 kts | 263° |
| 2026-05-05 17:29 | 33.91169 | -118.77102 | 9859 ft | 288 kts | 240° |
| 2026-05-05 17:30 | 33.89819 | -118.78898 | 10400 ft | 295 kts | 215° |
| 2026-05-05 17:30 | 33.87925 | -118.79854 | 10952 ft | 301 kts | 191° |
| 2026-05-05 17:30 | 33.85776 | -118.79758 | 11100 ft | 323 kts | 163° |
| 2026-05-05 17:30 | 33.83798 | -118.78376 | 11239 ft | 341 kts | 134° |
| 2026-05-05 17:31 | 33.82523 | -118.75969 | 11373 ft | 356 kts | 107° |
| 2026-05-05 17:31 | 33.82290 | -118.72959 | 11693 ft | 362 kts | 78° |
| 2026-05-05 17:31 | 33.82954 | -118.70082 | 12179 ft | 364 kts | 68° |
| 2026-05-05 17:31 | 33.83947 | -118.67278 | 12718 ft | 366 kts | 62° |
| 2026-05-05 17:32 | 33.85083 | -118.64527 | 13250 ft | 369 kts | 61° |
| 2026-05-05 17:32 | 33.86263 | -118.61759 | 13781 ft | 373 kts | 61° |
| 2026-05-05 17:32 | 33.87422 | -118.58953 | 14280 ft | 376 kts | 62° |
| 2026-05-05 17:32 | 33.88542 | -118.56097 | 14795 ft | 379 kts | 64° |
| 2026-05-05 17:33 | 33.89628 | -118.53201 | 15314 ft | 381 kts | 64° |
| 2026-05-05 17:33 | 33.90689 | -118.50274 | 15840 ft | 383 kts | 65° |
| 2026-05-05 17:33 | 33.91745 | -118.47319 | 16355 ft | 385 kts | 65° |
| 2026-05-05 17:33 | 33.92832 | -118.44360 | 16880 ft | 387 kts | 61° |
| 2026-05-05 17:34 | 33.94232 | -118.41595 | 17385 ft | 388 kts | 54° |
| 2026-05-05 17:34 | 33.95759 | -118.38899 | 17954 ft | 390 kts | 53° |
| 2026-05-05 17:34 | 33.97298 | -118.36197 | 18520 ft | 392 kts | 54° |
| 2026-05-05 17:34 | 33.98845 | -118.33482 | 18952 ft | 395 kts | 54° |
| 2026-05-05 17:35 | 34.00407 | -118.30735 | 19503 ft | 399 kts | 54° |
| 2026-05-05 17:35 | 34.01977 | -118.27971 | 20023 ft | 401 kts | 54° |
| 2026-05-05 17:35 | 34.03555 | -118.25189 | 20483 ft | 403 kts | 54° |
| 2026-05-05 17:35 | 34.05134 | -118.22397 | 20944 ft | 404 kts | 54° |
| 2026-05-05 17:36 | 34.06720 | -118.19595 | 21382 ft | 406 kts | 54° |
| 2026-05-05 17:36 | 34.08313 | -118.16782 | 21798 ft | 407 kts | 54° |
| 2026-05-05 17:36 | 34.09919 | -118.13948 | 22217 ft | 410 kts | 53° |
| 2026-05-05 17:36 | 34.11533 | -118.11101 | 22720 ft | 413 kts | 54° |
| 2026-05-05 17:37 | 34.13153 | -118.08233 | 23159 ft | 415 kts | 54° |
| 2026-05-05 17:37 | 34.14781 | -118.05347 | 23552 ft | 416 kts | 54° |
| 2026-05-05 17:37 | 34.16413 | -118.02450 | 23877 ft | 418 kts | 54° |
| 2026-05-05 17:37 | 34.18048 | -117.99540 | 24194 ft | 420 kts | 55° |
| 2026-05-05 17:38 | 34.19693 | -117.96607 | 24486 ft | 422 kts | 54° |
| 2026-05-05 17:38 | 34.21344 | -117.93665 | 24773 ft | 424 kts | 54° |
| 2026-05-05 17:38 | 34.23006 | -117.90709 | 25079 ft | 426 kts | 54° |
| 2026-05-05 17:38 | 34.24675 | -117.87742 | 25383 ft | 428 kts | 54° |
| 2026-05-05 17:39 | 34.26349 | -117.84759 | 25664 ft | 430 kts | 53° |
| 2026-05-05 17:39 | 34.28007 | -117.81799 | 25937 ft | 432 kts | 54° |
| 2026-05-05 17:39 | 34.29693 | -117.78783 | 26203 ft | 434 kts | 53° |
| 2026-05-05 17:39 | 34.31385 | -117.75753 | 26481 ft | 436 kts | 54° |
| 2026-05-05 17:40 | 34.33084 | -117.72707 | 26747 ft | 438 kts | 53° |
| 2026-05-05 17:40 | 34.34726 | -117.69593 | 27022 ft | 440 kts | 60° |
| 2026-05-05 17:40 | 34.36009 | -117.66218 | 27283 ft | 444 kts | 66° |
| 2026-05-05 17:40 | 34.37145 | -117.62732 | 27537 ft | 446 kts | 66° |
| 2026-05-05 17:41 | 34.38282 | -117.59235 | 27782 ft | 448 kts | 66° |
| 2026-05-05 17:41 | 34.39425 | -117.55722 | 28035 ft | 449 kts | 67° |
| 2026-05-05 17:41 | 34.40574 | -117.52197 | 28277 ft | 451 kts | 67° |
| 2026-05-05 17:41 | 34.41730 | -117.48657 | 28517 ft | 453 kts | 68° |
| 2026-05-05 17:42 | 34.42890 | -117.45097 | 28722 ft | 456 kts | 67° |
| 2026-05-05 17:42 | 34.44059 | -117.41513 | 28873 ft | 460 kts | 68° |
| 2026-05-05 17:42 | 34.45232 | -117.37892 | 29057 ft | 463 kts | 68° |
| 2026-05-05 17:42 | 34.46403 | -117.34253 | 29358 ft | 465 kts | 68° |
| 2026-05-05 17:43 | 34.47581 | -117.30595 | 29579 ft | 467 kts | 68° |
| 2026-05-05 17:43 | 34.48763 | -117.26929 | 29918 ft | 467 kts | 68° |
| 2026-05-05 17:43 | 34.49945 | -117.23270 | 30217 ft | 466 kts | 68° |
| 2026-05-05 17:43 | 34.51128 | -117.19613 | 30421 ft | 467 kts | 68° |
| 2026-05-05 17:44 | 34.52317 | -117.15936 | 30595 ft | 468 kts | 68° |
| 2026-05-05 17:44 | 34.53573 | -117.12279 | 30753 ft | 470 kts | 63° |
| 2026-05-05 17:44 | 34.55212 | -117.08849 | 30924 ft | 470 kts | 54° |
| 2026-05-05 17:44 | 34.57224 | -117.05746 | 31248 ft | 467 kts | 49° |
| 2026-05-05 17:45 | 34.59310 | -117.02727 | 31498 ft | 467 kts | 49° |
| 2026-05-05 17:45 | 34.61393 | -116.99693 | 31702 ft | 468 kts | 49° |
| 2026-05-05 17:45 | 34.63473 | -116.96653 | 31887 ft | 469 kts | 49° |
| 2026-05-05 17:45 | 34.65558 | -116.93599 | 32077 ft | 470 kts | 49° |
| 2026-05-05 17:46 | 34.67650 | -116.90536 | 32301 ft | 471 kts | 49° |
| 2026-05-05 17:46 | 34.69743 | -116.87472 | 32504 ft | 472 kts | 49° |
| 2026-05-05 17:46 | 34.71843 | -116.84400 | 32663 ft | 474 kts | 49° |
| 2026-05-05 17:46 | 34.73950 | -116.81316 | 32816 ft | 475 kts | 49° |
| 2026-05-05 17:47 | 34.76065 | -116.78218 | 32957 ft | 476 kts | 50° |
| 2026-05-05 17:47 | 34.80296 | -116.72023 | 32977 ft | 476 kts | 49° |
| 2026-05-05 17:48 | 34.84523 | -116.65814 | 32976 ft | 476 kts | 50° |
| 2026-05-05 17:48 | 34.88827 | -116.59709 | 32959 ft | 475 kts | 47° |
| 2026-05-05 17:49 | 34.93287 | -116.53840 | 32948 ft | 469 kts | 46° |
| 2026-05-05 17:49 | 34.97734 | -116.48037 | 32929 ft | 468 kts | 47° |
| 2026-05-05 17:50 | 35.02132 | -116.42182 | 32915 ft | 468 kts | 47° |
| 2026-05-05 17:50 | 35.06465 | -116.36325 | 32915 ft | 468 kts | 47° |
| 2026-05-05 17:51 | 35.10832 | -116.30422 | 32913 ft | 468 kts | 47° |
| 2026-05-05 17:51 | 35.15204 | -116.24534 | 32922 ft | 468 kts | 47° |
| 2026-05-05 17:52 | 35.19579 | -116.18642 | 32916 ft | 468 kts | 47° |
| 2026-05-05 17:52 | 35.23950 | -116.12739 | 32930 ft | 468 kts | 47° |
| 2026-05-05 17:53 | 35.28308 | -116.06828 | 32946 ft | 467 kts | 47° |
| 2026-05-05 17:53 | 35.32652 | -116.00923 | 32951 ft | 466 kts | 47° |
| 2026-05-05 17:54 | 35.36990 | -115.95023 | 32956 ft | 466 kts | 47° |
| 2026-05-05 17:54 | 35.41325 | -115.89122 | 32944 ft | 466 kts | 47° |
| 2026-05-05 17:55 | 35.45664 | -115.83215 | 32939 ft | 466 kts | 48° |
| 2026-05-05 17:55 | 35.49997 | -115.77294 | 32944 ft | 466 kts | 48° |
| 2026-05-05 17:56 | 35.54334 | -115.71365 | 32947 ft | 467 kts | 48° |
| 2026-05-05 17:56 | 35.58635 | -115.65463 | 32954 ft | 467 kts | 48° |
| 2026-05-05 17:57 | 35.62961 | -115.59517 | 32948 ft | 467 kts | 48° |
| 2026-05-05 17:57 | 35.67288 | -115.53559 | 32948 ft | 467 kts | 48° |
| 2026-05-05 17:58 | 35.71616 | -115.47593 | 32952 ft | 467 kts | 48° |
| 2026-05-05 17:58 | 35.75938 | -115.41617 | 32951 ft | 467 kts | 48° |
| 2026-05-05 17:59 | 35.80262 | -115.35638 | 32950 ft | 467 kts | 48° |
| 2026-05-05 17:59 | 35.84585 | -115.29652 | 32943 ft | 468 kts | 48° |
| 2026-05-05 18:00 | 35.88907 | -115.23651 | 32952 ft | 468 kts | 48° |
| 2026-05-05 18:00 | 35.93224 | -115.17649 | 32976 ft | 467 kts | 48° |
| 2026-05-05 18:01 | 35.97525 | -115.11656 | 32983 ft | 466 kts | 48° |
| 2026-05-05 18:01 | 36.01814 | -115.05673 | 32979 ft | 465 kts | 48° |
| 2026-05-05 18:02 | 36.06095 | -114.99691 | 32929 ft | 464 kts | 49° |
| 2026-05-05 18:02 | 36.10368 | -114.93694 | 32876 ft | 465 kts | 49° |
| 2026-05-05 18:03 | 36.14641 | -114.87674 | 32878 ft | 466 kts | 49° |
| 2026-05-05 18:03 | 36.18476 | -114.81245 | 32868 ft | 465 kts | 63° |
| 2026-05-05 18:04 | 36.20931 | -114.73856 | 32854 ft | 464 kts | 70° |
| 2026-05-05 18:04 | 36.23202 | -114.66427 | 32845 ft | 465 kts | 70° |
| 2026-05-05 18:05 | 36.25493 | -114.58936 | 32842 ft | 465 kts | 70° |
| 2026-05-05 18:05 | 36.27796 | -114.51390 | 32847 ft | 465 kts | 70° |
| 2026-05-05 18:06 | 36.30056 | -114.43949 | 32859 ft | 464 kts | 70° |
| 2026-05-05 18:06 | 36.32317 | -114.36470 | 32847 ft | 463 kts | 70° |
| 2026-05-05 18:07 | 36.34565 | -114.28994 | 32846 ft | 463 kts | 70° |
| 2026-05-05 18:07 | 36.36811 | -114.21513 | 32847 ft | 463 kts | 70° |
| 2026-05-05 18:08 | 36.39059 | -114.14027 | 32844 ft | 463 kts | 70° |
| 2026-05-05 18:08 | 36.41300 | -114.06540 | 32836 ft | 463 kts | 70° |
| 2026-05-05 18:09 | 36.43534 | -113.99041 | 32840 ft | 463 kts | 70° |
| 2026-05-05 18:09 | 36.45772 | -113.91542 | 32843 ft | 463 kts | 70° |
| 2026-05-05 18:10 | 36.48004 | -113.84032 | 32854 ft | 463 kts | 70° |
| 2026-05-05 18:10 | 36.50230 | -113.76521 | 32856 ft | 463 kts | 70° |
| 2026-05-05 18:11 | 36.52447 | -113.68998 | 32835 ft | 464 kts | 71° |
| 2026-05-05 18:11 | 36.54672 | -113.61444 | 32840 ft | 466 kts | 71° |
| 2026-05-05 18:12 | 36.56906 | -113.53868 | 32838 ft | 467 kts | 71° |
| 2026-05-05 18:12 | 36.59135 | -113.46273 | 32847 ft | 467 kts | 71° |
| 2026-05-05 18:13 | 36.61356 | -113.38662 | 32837 ft | 468 kts | 71° |
| 2026-05-05 18:13 | 36.63560 | -113.31077 | 32843 ft | 470 kts | 71° |
| 2026-05-05 18:14 | 36.65781 | -113.23416 | 32853 ft | 471 kts | 71° |
| 2026-05-05 18:14 | 36.68006 | -113.15739 | 32882 ft | 471 kts | 71° |
| 2026-05-05 18:15 | 36.70225 | -113.08055 | 32888 ft | 472 kts | 71° |
| 2026-05-05 18:15 | 36.72441 | -113.00341 | 32905 ft | 474 kts | 72° |
| 2026-05-05 18:16 | 36.74659 | -112.92590 | 32910 ft | 475 kts | 72° |
| 2026-05-05 18:16 | 36.76881 | -112.84823 | 32918 ft | 476 kts | 72° |
| 2026-05-05 18:17 | 36.79104 | -112.77041 | 32879 ft | 476 kts | 72° |
| 2026-05-05 18:17 | 36.81331 | -112.69242 | 32871 ft | 478 kts | 72° |
| 2026-05-05 18:18 | 36.83550 | -112.61415 | 32849 ft | 479 kts | 72° |
| 2026-05-05 18:18 | 36.85387 | -112.54897 | 32833 ft | 479 kts | 72° |
| 2026-05-05 18:19 | 36.87600 | -112.47035 | 32838 ft | 480 kts | 72° |
| 2026-05-05 18:19 | 36.90169 | -112.37885 | 32813 ft | 482 kts | 72° |
| 2026-05-05 18:20 | 36.92390 | -112.29960 | 32808 ft | 484 kts | 72° |
| 2026-05-05 18:20 | 36.94257 | -112.23290 | 32815 ft | 486 kts | 72° |
| 2026-05-05 18:21 | 36.96847 | -112.14016 | 32805 ft | 487 kts | 72° |
| 2026-05-05 18:21 | 36.98693 | -112.07367 | 32787 ft | 488 kts | 73° |
| 2026-05-05 18:22 | 37.00940 | -111.99285 | 32785 ft | 490 kts | 73° |
| 2026-05-05 18:22 | 37.03159 | -111.91279 | 32780 ft | 491 kts | 73° |
| 2026-05-05 18:23 | 37.05385 | -111.83196 | 32800 ft | 491 kts | 72° |
| 2026-05-05 18:23 | 37.07602 | -111.75122 | 32794 ft | 490 kts | 73° |
| 2026-05-05 18:24 | 37.09818 | -111.67054 | 32788 ft | 490 kts | 73° |
| 2026-05-05 18:24 | 37.12025 | -111.58988 | 32794 ft | 490 kts | 73° |
| 2026-05-05 18:25 | 37.14225 | -111.50914 | 32870 ft | 490 kts | 73° |
| 2026-05-05 18:25 | 37.16421 | -111.42837 | 32862 ft | 490 kts | 73° |
| 2026-05-05 18:26 | 37.18606 | -111.34750 | 32842 ft | 489 kts | 73° |
| 2026-05-05 18:26 | 37.20790 | -111.26667 | 32814 ft | 489 kts | 73° |
| 2026-05-05 18:27 | 37.22964 | -111.18576 | 32790 ft | 489 kts | 73° |
| 2026-05-05 18:27 | 37.25128 | -111.10479 | 32765 ft | 490 kts | 73° |
| 2026-05-05 18:28 | 37.28391 | -110.98284 | 32762 ft | 493 kts | 73° |
| 2026-05-05 18:28 | 37.30566 | -110.90115 | 32768 ft | 494 kts | 74° |
| 2026-05-05 18:29 | 37.32719 | -110.81984 | 32769 ft | 494 kts | 73° |
| 2026-05-05 18:29 | 37.34884 | -110.73773 | 32739 ft | 496 kts | 74° |
| 2026-05-05 18:30 | 37.37059 | -110.65521 | 32742 ft | 498 kts | 74° |
| 2026-05-05 18:30 | 37.39241 | -110.57232 | 32752 ft | 500 kts | 74° |
| 2026-05-05 18:31 | 37.41417 | -110.48913 | 32756 ft | 501 kts | 74° |
| 2026-05-05 18:31 | 37.43583 | -110.40572 | 32742 ft | 503 kts | 75° |
| 2026-05-05 18:32 | 37.45752 | -110.32191 | 32752 ft | 505 kts | 74° |
| 2026-05-05 18:32 | 37.47938 | -110.23783 | 32757 ft | 506 kts | 74° |
| 2026-05-05 18:33 | 37.50126 | -110.15356 | 32773 ft | 507 kts | 75° |
| 2026-05-05 18:33 | 37.52305 | -110.06910 | 32754 ft | 508 kts | 75° |
| 2026-05-05 18:34 | 37.54483 | -109.98425 | 32759 ft | 510 kts | 75° |
| 2026-05-05 18:34 | 37.56655 | -109.89902 | 32771 ft | 511 kts | 75° |
| 2026-05-05 18:35 | 37.58829 | -109.81367 | 32776 ft | 512 kts | 75° |
| 2026-05-05 18:35 | 37.61001 | -109.72816 | 32747 ft | 513 kts | 75° |
| 2026-05-05 18:36 | 37.62089 | -109.68524 | 32874 ft | 514 kts | 75° |
| 2026-05-05 18:36 | 37.63179 | -109.64218 | 32903 ft | 516 kts | 75° |
| 2026-05-05 18:36 | 37.65358 | -109.55581 | 32934 ft | 517 kts | 75° |
| 2026-05-05 18:37 | 37.67529 | -109.46923 | 32937 ft | 517 kts | 75° |
| 2026-05-05 18:37 | 37.69698 | -109.38252 | 32890 ft | 519 kts | 75° |
| 2026-05-05 18:38 | 37.71873 | -109.29548 | 32862 ft | 520 kts | 75° |
| 2026-05-05 18:38 | 37.74033 | -109.20886 | 32827 ft | 521 kts | 75° |
| 2026-05-05 18:39 | 37.76192 | -109.12148 | 32790 ft | 521 kts | 75° |
| 2026-05-05 18:39 | 37.78352 | -109.03392 | 32788 ft | 522 kts | 75° |
| 2026-05-05 18:40 | 37.80505 | -108.94637 | 32814 ft | 521 kts | 75° |
| 2026-05-05 18:40 | 37.82068 | -108.85746 | 32814 ft | 517 kts | 81° |
| 2026-05-05 18:41 | 37.83509 | -108.76846 | 32796 ft | 516 kts | 81° |
| 2026-05-05 18:41 | 37.84952 | -108.67951 | 32784 ft | 517 kts | 81° |
| 2026-05-05 18:42 | 37.86375 | -108.59033 | 32781 ft | 517 kts | 81° |
| 2026-05-05 18:42 | 37.87785 | -108.50103 | 32791 ft | 518 kts | 81° |
| 2026-05-05 18:43 | 37.89200 | -108.41166 | 32776 ft | 518 kts | 81° |
| 2026-05-05 18:43 | 37.90618 | -108.32208 | 32797 ft | 520 kts | 82° |
| 2026-05-05 18:44 | 37.92021 | -108.23211 | 32856 ft | 521 kts | 82° |
| 2026-05-05 18:44 | 37.93422 | -108.14193 | 32913 ft | 522 kts | 82° |
| 2026-05-05 18:45 | 37.94819 | -108.05164 | 32976 ft | 523 kts | 82° |
| 2026-05-05 18:45 | 37.96210 | -107.96126 | 32996 ft | 522 kts | 81° |
| 2026-05-05 18:46 | 37.97593 | -107.87085 | 32797 ft | 523 kts | 82° |
| 2026-05-05 18:46 | 37.98975 | -107.78032 | 32793 ft | 523 kts | 82° |
| 2026-05-05 18:47 | 38.00354 | -107.68988 | 32771 ft | 523 kts | 82° |
| 2026-05-05 18:47 | 38.01722 | -107.59922 | 32771 ft | 524 kts | 82° |
| 2026-05-05 18:48 | 38.03073 | -107.50902 | 32766 ft | 524 kts | 82° |
| 2026-05-05 18:48 | 38.04426 | -107.41805 | 32761 ft | 525 kts | 82° |
| 2026-05-05 18:49 | 38.05776 | -107.32701 | 32746 ft | 526 kts | 83° |
| 2026-05-05 18:49 | 38.07131 | -107.23556 | 32759 ft | 529 kts | 83° |
| 2026-05-05 18:50 | 38.08480 | -107.14367 | 32744 ft | 530 kts | 83° |
| 2026-05-05 18:50 | 38.09820 | -107.05166 | 32756 ft | 530 kts | 83° |
| 2026-05-05 18:51 | 38.11154 | -106.95947 | 32731 ft | 532 kts | 83° |
| 2026-05-05 18:51 | 38.12483 | -106.86698 | 32736 ft | 533 kts | 83° |
| 2026-05-05 18:52 | 38.13813 | -106.77421 | 32735 ft | 534 kts | 83° |
| 2026-05-05 18:52 | 38.15142 | -106.68125 | 32735 ft | 535 kts | 83° |
| 2026-05-05 18:53 | 38.16464 | -106.58802 | 32720 ft | 537 kts | 83° |
| 2026-05-05 18:53 | 38.17780 | -106.49437 | 32728 ft | 539 kts | 83° |
| 2026-05-05 18:54 | 38.19093 | -106.40048 | 32721 ft | 540 kts | 83° |
| 2026-05-05 18:54 | 38.20407 | -106.30643 | 32713 ft | 541 kts | 83° |
| 2026-05-05 18:55 | 38.21702 | -106.21274 | 32718 ft | 542 kts | 83° |
| 2026-05-05 18:55 | 38.22995 | -106.11826 | 32719 ft | 543 kts | 84° |
| 2026-05-05 18:56 | 38.24289 | -106.02359 | 32724 ft | 544 kts | 84° |
| 2026-05-05 18:56 | 38.25574 | -105.92839 | 32704 ft | 549 kts | 84° |
| 2026-05-05 18:57 | 38.26864 | -105.83256 | 32727 ft | 550 kts | 84° |
| 2026-05-05 18:57 | 38.28141 | -105.73774 | 32739 ft | 550 kts | 84° |
| 2026-05-05 18:58 | 38.29426 | -105.64169 | 32854 ft | 554 kts | 84° |
| 2026-05-05 18:58 | 38.30066 | -105.59324 | 32988 ft | 557 kts | 84° |
| 2026-05-05 18:58 | 38.30707 | -105.54454 | 33201 ft | 558 kts | 84° |
| 2026-05-05 18:59 | 38.31345 | -105.49577 | 33445 ft | 559 kts | 84° |
| 2026-05-05 18:59 | 38.31983 | -105.44696 | 33663 ft | 559 kts | 84° |
| 2026-05-05 18:59 | 38.32612 | -105.39873 | 33875 ft | 559 kts | 84° |
| 2026-05-05 18:59 | 38.33247 | -105.34989 | 34094 ft | 559 kts | 84° |
| 2026-05-05 19:00 | 38.33882 | -105.30110 | 34350 ft | 558 kts | 84° |
| 2026-05-05 19:00 | 38.34517 | -105.25233 | 34566 ft | 557 kts | 85° |
| 2026-05-05 19:00 | 38.35148 | -105.20366 | 34744 ft | 557 kts | 85° |
| 2026-05-05 19:00 | 38.35774 | -105.15501 | 34781 ft | 557 kts | 85° |
| 2026-05-05 19:01 | 38.37011 | -105.05779 | 34806 ft | 556 kts | 85° |
| 2026-05-05 19:01 | 38.38240 | -104.96054 | 34805 ft | 555 kts | 85° |
| 2026-05-05 19:02 | 38.39473 | -104.86334 | 34867 ft | 556 kts | 85° |
| 2026-05-05 19:02 | 38.40704 | -104.76607 | 34906 ft | 556 kts | 85° |
| 2026-05-05 19:03 | 38.41919 | -104.66880 | 34944 ft | 556 kts | 85° |
| 2026-05-05 19:03 | 38.43110 | -104.57140 | 34984 ft | 556 kts | 85° |
| 2026-05-05 19:04 | 38.44302 | -104.47395 | 34996 ft | 556 kts | 85° |
| 2026-05-05 19:04 | 38.45499 | -104.37647 | 34991 ft | 556 kts | 85° |
| 2026-05-05 19:05 | 38.46674 | -104.27961 | 34985 ft | 556 kts | 85° |
| 2026-05-05 19:05 | 38.47838 | -104.18203 | 34970 ft | 556 kts | 85° |
| 2026-05-05 19:06 | 38.48998 | -104.08442 | 34965 ft | 556 kts | 85° |
| 2026-05-05 19:06 | 38.50159 | -103.98679 | 34973 ft | 557 kts | 84° |
| 2026-05-05 19:07 | 38.51378 | -103.90530 | 34979 ft | 559 kts | 81° |
| 2026-05-05 19:07 | 38.53420 | -103.79288 | 34990 ft | 560 kts | 79° |
| 2026-05-05 19:08 | 38.55149 | -103.69603 | 34961 ft | 559 kts | 81° |
| 2026-05-05 19:08 | 38.56741 | -103.59882 | 34971 ft | 559 kts | 82° |
| 2026-05-05 19:09 | 38.58299 | -103.50139 | 34971 ft | 560 kts | 82° |
| 2026-05-05 19:09 | 38.59889 | -103.40393 | 34958 ft | 561 kts | 81° |
| 2026-05-05 19:10 | 38.61490 | -103.30633 | 34980 ft | 561 kts | 81° |
| 2026-05-05 19:10 | 38.62809 | -103.22505 | 34983 ft | 561 kts | 81° |
| 2026-05-05 19:11 | 38.64383 | -103.12726 | 34992 ft | 562 kts | 81° |
| 2026-05-05 19:11 | 38.66218 | -103.01273 | 34995 ft | 562 kts | 81° |
| 2026-05-05 19:12 | 38.67515 | -102.93121 | 34997 ft | 563 kts | 81° |
| 2026-05-05 19:12 | 38.69072 | -102.83295 | 35009 ft | 563 kts | 81° |
| 2026-05-05 19:13 | 38.70619 | -102.73468 | 35006 ft | 564 kts | 81° |
| 2026-05-05 19:13 | 38.72156 | -102.63621 | 35007 ft | 564 kts | 81° |
| 2026-05-05 19:14 | 38.73681 | -102.53833 | 35006 ft | 564 kts | 81° |
| 2026-05-05 19:14 | 38.75212 | -102.43970 | 35012 ft | 565 kts | 81° |
| 2026-05-05 19:15 | 38.76728 | -102.34099 | 35014 ft | 565 kts | 81° |
| 2026-05-05 19:15 | 38.78235 | -102.24217 | 35014 ft | 565 kts | 81° |
| 2026-05-05 19:16 | 38.79740 | -102.14329 | 35026 ft | 565 kts | 81° |
| 2026-05-05 19:16 | 38.81239 | -102.04435 | 35028 ft | 565 kts | 82° |
| 2026-05-05 19:17 | 38.82726 | -101.94529 | 35025 ft | 566 kts | 81° |
| 2026-05-05 19:17 | 38.84205 | -101.84611 | 35028 ft | 566 kts | 81° |
| 2026-05-05 19:18 | 38.85581 | -101.74659 | 35031 ft | 566 kts | 85° |
| 2026-05-05 19:18 | 38.86514 | -101.64656 | 35027 ft | 564 kts | 88° |
| 2026-05-05 19:19 | 38.87243 | -101.54635 | 35029 ft | 565 kts | 88° |
| 2026-05-05 19:19 | 38.88057 | -101.44602 | 35033 ft | 566 kts | 86° |
| 2026-05-05 19:20 | 38.88969 | -101.34569 | 35038 ft | 566 kts | 86° |
| 2026-05-05 19:20 | 38.89885 | -101.24533 | 35033 ft | 566 kts | 86° |
| 2026-05-05 19:21 | 38.90760 | -101.14488 | 35040 ft | 567 kts | 86° |
| 2026-05-05 19:21 | 38.91608 | -101.04428 | 35048 ft | 567 kts | 87° |
| 2026-05-05 19:22 | 38.92450 | -100.94365 | 35057 ft | 567 kts | 87° |
| 2026-05-05 19:22 | 38.93291 | -100.84300 | 35059 ft | 567 kts | 87° |
| 2026-05-05 19:23 | 38.94130 | -100.74223 | 35058 ft | 567 kts | 87° |
| 2026-05-05 19:23 | 38.94954 | -100.64156 | 35057 ft | 567 kts | 87° |
| 2026-05-05 19:24 | 38.95760 | -100.54154 | 35052 ft | 567 kts | 87° |
| 2026-05-05 19:24 | 38.96570 | -100.44075 | 35050 ft | 567 kts | 87° |
| 2026-05-05 19:25 | 38.97376 | -100.33996 | 35053 ft | 567 kts | 87° |
| 2026-05-05 19:25 | 38.98164 | -100.23908 | 35054 ft | 567 kts | 87° |
| 2026-05-05 19:26 | 38.98944 | -100.13816 | 35051 ft | 568 kts | 87° |
| 2026-05-05 19:26 | 38.99718 | -100.03712 | 35054 ft | 568 kts | 87° |
| 2026-05-05 19:27 | 39.00488 | -99.93614 | 35058 ft | 568 kts | 87° |
| 2026-05-05 19:27 | 39.01260 | -99.83513 | 35059 ft | 568 kts | 87° |
| 2026-05-05 19:28 | 39.02026 | -99.73404 | 35050 ft | 568 kts | 87° |
| 2026-05-05 19:28 | 39.02777 | -99.63296 | 35058 ft | 568 kts | 87° |
| 2026-05-05 19:29 | 39.03517 | -99.53178 | 35063 ft | 568 kts | 87° |
| 2026-05-05 19:29 | 39.04248 | -99.43058 | 35060 ft | 568 kts | 87° |
| 2026-05-05 19:30 | 39.04967 | -99.33011 | 35058 ft | 568 kts | 87° |
| 2026-05-05 19:30 | 39.05683 | -99.22888 | 35056 ft | 568 kts | 87° |
| 2026-05-05 19:31 | 39.06388 | -99.12763 | 35055 ft | 568 kts | 88° |
| 2026-05-05 19:31 | 39.07086 | -99.02638 | 35037 ft | 568 kts | 87° |
| 2026-05-05 19:32 | 39.07777 | -98.92504 | 35038 ft | 568 kts | 87° |
| 2026-05-05 19:32 | 39.08458 | -98.82370 | 35036 ft | 568 kts | 88° |
| 2026-05-05 19:33 | 39.09126 | -98.72229 | 35033 ft | 568 kts | 88° |
| 2026-05-05 19:33 | 39.09791 | -98.62097 | 35019 ft | 568 kts | 88° |
| 2026-05-05 19:34 | 39.10451 | -98.51951 | 35032 ft | 568 kts | 88° |
| 2026-05-05 19:35 | 39.11415 | -98.36736 | 35036 ft | 568 kts | 88° |
| 2026-05-05 19:35 | 39.12046 | -98.26591 | 35039 ft | 569 kts | 88° |
| 2026-05-05 19:36 | 39.12667 | -98.16501 | 35037 ft | 569 kts | 88° |
| 2026-05-05 19:36 | 39.13282 | -98.06348 | 35035 ft | 569 kts | 88° |
| 2026-05-05 19:37 | 39.13892 | -97.96190 | 35022 ft | 569 kts | 88° |
| 2026-05-05 19:37 | 39.14492 | -97.86020 | 35022 ft | 569 kts | 88° |
| 2026-05-05 19:38 | 39.15081 | -97.75854 | 35031 ft | 569 kts | 88° |
| 2026-05-05 19:38 | 39.15656 | -97.65684 | 35032 ft | 569 kts | 88° |
| 2026-05-05 19:39 | 39.16235 | -97.55513 | 35020 ft | 569 kts | 88° |
| 2026-05-05 19:39 | 39.16801 | -97.45344 | 35025 ft | 569 kts | 88° |
| 2026-05-05 19:40 | 39.17351 | -97.35172 | 35029 ft | 569 kts | 88° |
| 2026-05-05 19:40 | 39.17894 | -97.24991 | 35028 ft | 569 kts | 88° |
| 2026-05-05 19:41 | 39.18431 | -97.14811 | 35026 ft | 569 kts | 88° |
| 2026-05-05 19:41 | 39.18958 | -97.04631 | 35025 ft | 569 kts | 88° |
| 2026-05-05 19:42 | 39.19472 | -96.94451 | 35030 ft | 569 kts | 88° |
| 2026-05-05 19:42 | 39.19978 | -96.84262 | 35049 ft | 570 kts | 88° |
| 2026-05-05 19:43 | 39.20485 | -96.74068 | 35048 ft | 570 kts | 88° |
| 2026-05-05 19:43 | 39.20988 | -96.63871 | 35047 ft | 570 kts | 88° |
| 2026-05-05 19:44 | 39.21477 | -96.53662 | 35030 ft | 571 kts | 88° |
| 2026-05-05 19:44 | 39.21943 | -96.43446 | 35019 ft | 571 kts | 88° |
| 2026-05-05 19:45 | 39.22407 | -96.33233 | 35021 ft | 570 kts | 88° |
| 2026-05-05 19:45 | 39.22869 | -96.23022 | 35017 ft | 570 kts | 88° |
| 2026-05-05 19:46 | 39.23321 | -96.12805 | 35018 ft | 571 kts | 88° |
| 2026-05-05 19:46 | 39.23755 | -96.02584 | 35021 ft | 571 kts | 88° |
| 2026-05-05 19:47 | 39.24183 | -95.92353 | 35009 ft | 572 kts | 88° |
| 2026-05-05 19:47 | 39.24611 | -95.82114 | 35009 ft | 571 kts | 88° |
| 2026-05-05 19:48 | 39.25025 | -95.71947 | 35006 ft | 571 kts | 88° |
| 2026-05-05 19:48 | 39.25433 | -95.61716 | 35008 ft | 571 kts | 88° |
| 2026-05-05 19:49 | 39.25825 | -95.51475 | 35006 ft | 571 kts | 88° |
| 2026-05-05 19:49 | 39.26203 | -95.41232 | 35002 ft | 572 kts | 88° |
| 2026-05-05 19:50 | 39.26579 | -95.30985 | 35006 ft | 572 kts | 88° |
| 2026-05-05 19:50 | 39.26951 | -95.20730 | 35004 ft | 572 kts | 88° |
| 2026-05-05 19:51 | 39.27315 | -95.10465 | 35006 ft | 572 kts | 88° |
| 2026-05-05 19:51 | 39.27670 | -95.00202 | 34997 ft | 573 kts | 88° |
| 2026-05-05 19:52 | 39.28011 | -94.89928 | 34996 ft | 573 kts | 88° |
| 2026-05-05 19:52 | 39.28343 | -94.79657 | 34997 ft | 573 kts | 88° |
| 2026-05-05 19:53 | 39.29488 | -94.69515 | 34993 ft | 570 kts | 71° |
| 2026-05-05 19:53 | 39.31735 | -94.59721 | 34993 ft | 569 kts | 70° |
| 2026-05-05 19:54 | 39.33975 | -94.49911 | 35015 ft | 569 kts | 70° |
| 2026-05-05 19:54 | 39.36191 | -94.40097 | 35010 ft | 569 kts | 70° |
| 2026-05-05 19:55 | 39.38405 | -94.30286 | 35008 ft | 569 kts | 70° |
| 2026-05-05 19:55 | 39.40600 | -94.20534 | 35009 ft | 569 kts | 70° |
| 2026-05-05 19:56 | 39.42800 | -94.10714 | 35001 ft | 568 kts | 70° |
| 2026-05-05 19:56 | 39.44990 | -94.00892 | 34999 ft | 568 kts | 70° |
| 2026-05-05 19:57 | 39.47170 | -93.91055 | 35002 ft | 568 kts | 70° |
| 2026-05-05 19:57 | 39.49337 | -93.81217 | 35010 ft | 568 kts | 70° |
| 2026-05-05 19:58 | 39.51504 | -93.71370 | 35004 ft | 568 kts | 70° |
| 2026-05-05 19:58 | 39.53663 | -93.61527 | 34993 ft | 568 kts | 70° |
| 2026-05-05 19:59 | 39.55811 | -93.51673 | 34995 ft | 568 kts | 70° |
| 2026-05-05 19:59 | 39.57945 | -93.41815 | 35001 ft | 569 kts | 70° |
| 2026-05-05 20:00 | 39.60077 | -93.31937 | 35006 ft | 569 kts | 70° |
| 2026-05-05 20:00 | 39.62200 | -93.22050 | 35009 ft | 569 kts | 70° |
| 2026-05-05 20:01 | 39.64316 | -93.12150 | 35012 ft | 569 kts | 70° |
| 2026-05-05 20:01 | 39.66072 | -93.03919 | 35013 ft | 570 kts | 70° |
| 2026-05-05 20:02 | 39.68516 | -92.92405 | 35021 ft | 569 kts | 70° |
| 2026-05-05 20:02 | 39.70612 | -92.82490 | 35025 ft | 569 kts | 70° |
| 2026-05-05 20:03 | 39.72695 | -92.72576 | 35024 ft | 569 kts | 70° |
| 2026-05-05 20:03 | 39.74432 | -92.64266 | 35018 ft | 568 kts | 70° |
| 2026-05-05 20:04 | 39.76492 | -92.54359 | 35014 ft | 568 kts | 70° |
| 2026-05-05 20:04 | 39.78543 | -92.44460 | 35017 ft | 567 kts | 71° |
| 2026-05-05 20:05 | 39.80562 | -92.34669 | 34979 ft | 563 kts | 71° |
| 2026-05-05 20:05 | 39.82586 | -92.24826 | 34974 ft | 564 kts | 70° |
| 2026-05-05 20:06 | 39.84609 | -92.14959 | 34988 ft | 565 kts | 70° |
| 2026-05-05 20:06 | 39.86615 | -92.05061 | 34990 ft | 566 kts | 71° |
| 2026-05-05 20:07 | 39.88609 | -91.95156 | 34996 ft | 566 kts | 71° |
| 2026-05-05 20:07 | 39.90603 | -91.85247 | 35010 ft | 566 kts | 70° |
| 2026-05-05 20:08 | 39.92591 | -91.75340 | 34998 ft | 565 kts | 70° |
| 2026-05-05 20:08 | 39.94573 | -91.65428 | 34994 ft | 565 kts | 71° |
| 2026-05-05 20:09 | 39.96544 | -91.55516 | 34993 ft | 565 kts | 71° |
| 2026-05-05 20:09 | 39.98500 | -91.45596 | 34978 ft | 565 kts | 70° |
| 2026-05-05 20:10 | 40.00440 | -91.35741 | 34968 ft | 564 kts | 70° |
| 2026-05-05 20:10 | 40.02395 | -91.25759 | 34994 ft | 564 kts | 71° |
| 2026-05-05 20:11 | 40.04315 | -91.15909 | 34957 ft | 563 kts | 71° |
| 2026-05-05 20:11 | 40.06228 | -91.05990 | 34957 ft | 563 kts | 71° |
| 2026-05-05 20:12 | 40.08139 | -90.96078 | 34968 ft | 563 kts | 71° |
| 2026-05-05 20:12 | 40.10046 | -90.86157 | 34969 ft | 563 kts | 71° |
| 2026-05-05 20:13 | 40.11944 | -90.76225 | 34956 ft | 563 kts | 71° |
| 2026-05-05 20:13 | 40.13826 | -90.66295 | 34964 ft | 563 kts | 71° |
| 2026-05-05 20:14 | 40.15706 | -90.56374 | 34969 ft | 562 kts | 71° |
| 2026-05-05 20:14 | 40.17582 | -90.46462 | 34967 ft | 562 kts | 71° |
| 2026-05-05 20:15 | 40.19428 | -90.36534 | 34974 ft | 562 kts | 71° |
| 2026-05-05 20:15 | 40.21265 | -90.26602 | 34969 ft | 561 kts | 71° |
| 2026-05-05 20:16 | 40.23107 | -90.16677 | 34965 ft | 561 kts | 71° |
| 2026-05-05 20:16 | 40.24940 | -90.06757 | 34966 ft | 561 kts | 71° |
| 2026-05-05 20:17 | 40.26763 | -89.96818 | 34988 ft | 561 kts | 71° |
| 2026-05-05 20:17 | 40.28558 | -89.86935 | 34977 ft | 562 kts | 72° |
| 2026-05-05 20:18 | 40.30356 | -89.76987 | 34972 ft | 562 kts | 72° |
| 2026-05-05 20:18 | 40.32159 | -89.67030 | 34964 ft | 562 kts | 72° |
| 2026-05-05 20:19 | 40.33951 | -89.57065 | 34966 ft | 562 kts | 72° |
| 2026-05-05 20:19 | 40.35724 | -89.47093 | 34962 ft | 562 kts | 72° |
| 2026-05-05 20:20 | 40.37489 | -89.37109 | 34958 ft | 562 kts | 72° |
| 2026-05-05 20:20 | 40.39256 | -89.27121 | 34958 ft | 562 kts | 72° |
| 2026-05-05 20:21 | 40.41017 | -89.17132 | 34953 ft | 562 kts | 72° |
| 2026-05-05 20:21 | 40.42765 | -89.07137 | 34948 ft | 562 kts | 72° |
| 2026-05-05 20:22 | 40.44497 | -88.97138 | 34971 ft | 562 kts | 72° |
| 2026-05-05 20:22 | 40.46220 | -88.87131 | 34973 ft | 562 kts | 72° |
| 2026-05-05 20:23 | 40.47941 | -88.77125 | 34955 ft | 561 kts | 72° |
| 2026-05-05 20:23 | 40.49651 | -88.67128 | 34939 ft | 561 kts | 72° |
| 2026-05-05 20:24 | 40.51344 | -88.57182 | 34932 ft | 562 kts | 72° |
| 2026-05-05 20:24 | 40.53050 | -88.47090 | 34914 ft | 562 kts | 73° |
| 2026-05-05 20:25 | 40.54721 | -88.37130 | 34930 ft | 562 kts | 72° |
| 2026-05-05 20:25 | 40.56394 | -88.27107 | 34932 ft | 561 kts | 73° |
| 2026-05-05 20:26 | 40.57893 | -88.17026 | 34928 ft | 565 kts | 81° |
| 2026-05-05 20:26 | 40.57986 | -88.06666 | 34923 ft | 568 kts | 90° |
| 2026-05-05 20:27 | 40.57779 | -87.96277 | 34919 ft | 568 kts | 90° |
| 2026-05-05 20:27 | 40.57559 | -87.85888 | 34920 ft | 569 kts | 90° |
| 2026-05-05 20:28 | 40.57340 | -87.75486 | 34915 ft | 569 kts | 90° |
| 2026-05-05 20:28 | 40.57112 | -87.65092 | 34917 ft | 568 kts | 90° |
| 2026-05-05 20:29 | 40.56867 | -87.54715 | 34922 ft | 568 kts | 90° |
| 2026-05-05 20:29 | 40.56612 | -87.44330 | 34917 ft | 568 kts | 90° |
| 2026-05-05 20:30 | 40.56346 | -87.33954 | 34913 ft | 568 kts | 90° |
| 2026-05-05 20:30 | 40.56069 | -87.23588 | 34916 ft | 567 kts | 90° |
| 2026-05-05 20:31 | 40.55778 | -87.13231 | 34931 ft | 566 kts | 90° |
| 2026-05-05 20:31 | 40.56343 | -87.02999 | 34933 ft | 557 kts | 72° |
| 2026-05-05 20:32 | 40.58125 | -86.93123 | 34923 ft | 555 kts | 70° |
| 2026-05-05 20:32 | 40.59913 | -86.83258 | 34937 ft | 554 kts | 70° |
| 2026-05-05 20:33 | 40.61675 | -86.73388 | 34933 ft | 554 kts | 71° |
| 2026-05-05 20:33 | 40.63432 | -86.63517 | 34929 ft | 553 kts | 71° |
| 2026-05-05 20:34 | 40.65188 | -86.53656 | 34946 ft | 553 kts | 70° |
| 2026-05-05 20:34 | 40.66917 | -86.43866 | 34951 ft | 552 kts | 71° |
| 2026-05-05 20:35 | 40.68647 | -86.34024 | 34945 ft | 551 kts | 71° |
| 2026-05-05 20:35 | 40.70367 | -86.24186 | 34899 ft | 551 kts | 71° |
| 2026-05-05 20:36 | 40.72078 | -86.14350 | 34908 ft | 550 kts | 71° |
| 2026-05-05 20:36 | 40.73775 | -86.04515 | 34910 ft | 549 kts | 71° |
| 2026-05-05 20:37 | 40.75468 | -85.94702 | 34915 ft | 548 kts | 71° |
| 2026-05-05 20:37 | 40.77145 | -85.84891 | 34912 ft | 548 kts | 71° |
| 2026-05-05 20:38 | 40.78807 | -85.75077 | 34911 ft | 548 kts | 71° |
| 2026-05-05 20:38 | 40.80461 | -85.65263 | 34903 ft | 548 kts | 71° |
| 2026-05-05 20:39 | 40.82113 | -85.55452 | 34895 ft | 548 kts | 71° |
| 2026-05-05 20:39 | 40.83759 | -85.45625 | 34912 ft | 548 kts | 72° |
| 2026-05-05 20:40 | 40.85391 | -85.35805 | 34911 ft | 547 kts | 72° |
| 2026-05-05 20:40 | 40.87012 | -85.25994 | 34917 ft | 546 kts | 72° |
| 2026-05-05 20:41 | 40.88875 | -85.16321 | 34911 ft | 541 kts | 67° |
| 2026-05-05 20:41 | 40.91111 | -85.06857 | 34906 ft | 538 kts | 65° |
| 2026-05-05 20:42 | 40.93355 | -84.97415 | 34915 ft | 538 kts | 67° |
| 2026-05-05 20:42 | 40.95453 | -84.87912 | 34910 ft | 538 kts | 68° |
| 2026-05-05 20:43 | 40.97465 | -84.78449 | 34902 ft | 537 kts | 68° |
| 2026-05-05 20:43 | 40.99506 | -84.68955 | 34895 ft | 536 kts | 68° |
| 2026-05-05 20:44 | 41.01568 | -84.59473 | 34888 ft | 534 kts | 68° |
| 2026-05-05 20:44 | 41.03606 | -84.50064 | 34882 ft | 531 kts | 69° |
| 2026-05-05 20:45 | 41.06629 | -84.35947 | 34898 ft | 531 kts | 69° |
| 2026-05-05 20:45 | 41.08640 | -84.26518 | 34899 ft | 532 kts | 69° |
| 2026-05-05 20:46 | 41.10636 | -84.17092 | 34911 ft | 531 kts | 69° |
| 2026-05-05 20:46 | 41.12620 | -84.07671 | 34911 ft | 530 kts | 69° |
| 2026-05-05 20:47 | 41.14599 | -83.98254 | 34913 ft | 529 kts | 69° |
| 2026-05-05 20:47 | 41.16569 | -83.88849 | 34897 ft | 529 kts | 70° |
| 2026-05-05 20:48 | 41.18527 | -83.79456 | 34924 ft | 527 kts | 70° |
| 2026-05-05 20:48 | 41.20463 | -83.70088 | 34904 ft | 526 kts | 70° |
| 2026-05-05 20:49 | 41.22393 | -83.60730 | 34899 ft | 525 kts | 70° |
| 2026-05-05 20:49 | 41.24319 | -83.51370 | 34893 ft | 525 kts | 71° |
| 2026-05-05 20:50 | 41.25912 | -83.43598 | 34915 ft | 524 kts | 71° |
| 2026-05-05 20:50 | 41.28138 | -83.32675 | 34917 ft | 523 kts | 71° |
| 2026-05-05 20:51 | 41.30028 | -83.23339 | 34914 ft | 523 kts | 71° |
| 2026-05-05 20:51 | 41.31911 | -83.14000 | 34890 ft | 523 kts | 72° |
| 2026-05-05 20:52 | 41.33772 | -83.04737 | 34905 ft | 521 kts | 72° |
| 2026-05-05 20:52 | 41.35636 | -82.95437 | 34876 ft | 520 kts | 72° |
| 2026-05-05 20:53 | 41.37486 | -82.86164 | 34855 ft | 518 kts | 72° |
| 2026-05-05 20:53 | 41.39027 | -82.78392 | 34854 ft | 519 kts | 72° |
| 2026-05-05 20:54 | 41.40852 | -82.69167 | 34873 ft | 518 kts | 73° |
| 2026-05-05 20:54 | 41.42677 | -82.59878 | 34884 ft | 518 kts | 73° |
| 2026-05-05 20:55 | 41.44488 | -82.50589 | 34895 ft | 518 kts | 74° |
| 2026-05-05 20:55 | 41.46294 | -82.41291 | 34889 ft | 518 kts | 74° |
| 2026-05-05 20:56 | 41.48099 | -82.31980 | 34887 ft | 519 kts | 73° |
| 2026-05-05 20:56 | 41.49896 | -82.22662 | 34894 ft | 518 kts | 73° |
| 2026-05-05 20:57 | 41.51681 | -82.13344 | 34919 ft | 518 kts | 75° |
| 2026-05-05 20:57 | 41.53454 | -82.04021 | 34900 ft | 519 kts | 75° |
| 2026-05-05 20:58 | 41.55228 | -81.94690 | 34887 ft | 519 kts | 75° |
| 2026-05-05 20:58 | 41.57006 | -81.85340 | 34881 ft | 520 kts | 75° |
| 2026-05-05 20:59 | 41.58773 | -81.75990 | 34875 ft | 520 kts | 75° |
| 2026-05-05 20:59 | 41.60515 | -81.66679 | 34880 ft | 520 kts | 75° |
| 2026-05-05 21:00 | 41.62264 | -81.57289 | 34877 ft | 521 kts | 74° |
| 2026-05-05 21:00 | 41.64009 | -81.47898 | 34895 ft | 520 kts | 75° |
| 2026-05-05 21:01 | 41.65739 | -81.38505 | 34897 ft | 520 kts | 75° |
| 2026-05-05 21:01 | 41.67457 | -81.29109 | 34904 ft | 520 kts | 75° |
| 2026-05-05 21:02 | 41.69179 | -81.19705 | 34883 ft | 521 kts | 75° |
| 2026-05-05 21:02 | 41.70903 | -81.10284 | 34876 ft | 521 kts | 75° |
| 2026-05-05 21:03 | 41.72609 | -81.00848 | 34867 ft | 522 kts | 75° |
| 2026-05-05 21:03 | 41.74301 | -80.91400 | 34876 ft | 522 kts | 75° |
| 2026-05-05 21:04 | 41.75997 | -80.81955 | 34889 ft | 522 kts | 75° |
| 2026-05-05 21:04 | 41.77682 | -80.72509 | 34887 ft | 521 kts | 75° |
| 2026-05-05 21:05 | 41.79359 | -80.63068 | 34884 ft | 520 kts | 75° |
| 2026-05-05 21:05 | 41.81425 | -80.53812 | 34897 ft | 518 kts | 68° |
| 2026-05-05 21:06 | 41.83895 | -80.44746 | 34885 ft | 518 kts | 68° |
| 2026-05-05 21:06 | 41.86332 | -80.35739 | 34888 ft | 517 kts | 68° |
| 2026-05-05 21:07 | 41.88778 | -80.26667 | 34885 ft | 516 kts | 68° |
| 2026-05-05 21:07 | 41.91213 | -80.17602 | 34884 ft | 516 kts | 68° |
| 2026-05-05 21:08 | 41.93634 | -80.08548 | 34893 ft | 515 kts | 68° |
| 2026-05-05 21:08 | 41.96050 | -79.99479 | 34867 ft | 520 kts | 68° |
| 2026-05-05 21:09 | 41.98515 | -79.90220 | 34863 ft | 531 kts | 68° |
| 2026-05-05 21:09 | 42.00998 | -79.80841 | 34865 ft | 534 kts | 69° |
| 2026-05-05 21:10 | 42.03462 | -79.71463 | 34861 ft | 530 kts | 69° |
| 2026-05-05 21:10 | 42.05904 | -79.62118 | 34857 ft | 529 kts | 69° |
| 2026-05-05 21:11 | 42.08347 | -79.52769 | 34856 ft | 529 kts | 69° |
| 2026-05-05 21:11 | 42.10797 | -79.43415 | 34860 ft | 530 kts | 69° |
| 2026-05-05 21:12 | 42.13229 | -79.34051 | 34870 ft | 530 kts | 69° |
| 2026-05-05 21:12 | 42.15635 | -79.24715 | 34863 ft | 532 kts | 69° |
| 2026-05-05 21:13 | 42.17371 | -79.15043 | 34848 ft | 533 kts | 86° |
| 2026-05-05 21:13 | 42.16925 | -79.05155 | 34828 ft | 527 kts | 105° |
| 2026-05-05 21:14 | 42.14759 | -78.95700 | 34821 ft | 525 kts | 112° |
| 2026-05-05 21:14 | 42.12433 | -78.86360 | 34827 ft | 526 kts | 112° |
| 2026-05-05 21:15 | 42.10096 | -78.77078 | 34818 ft | 527 kts | 112° |
| 2026-05-05 21:15 | 42.07735 | -78.67734 | 34830 ft | 527 kts | 112° |
| 2026-05-05 21:16 | 42.05367 | -78.58388 | 34835 ft | 528 kts | 112° |
| 2026-05-05 21:16 | 42.02991 | -78.49044 | 34824 ft | 528 kts | 112° |
| 2026-05-05 21:17 | 42.00607 | -78.39712 | 34839 ft | 527 kts | 112° |
| 2026-05-05 21:17 | 41.98212 | -78.30389 | 34846 ft | 528 kts | 112° |
| 2026-05-05 21:18 | 41.95812 | -78.21070 | 34853 ft | 528 kts | 112° |
| 2026-05-05 21:18 | 41.93409 | -78.11764 | 34854 ft | 527 kts | 112° |
| 2026-05-05 21:19 | 41.90990 | -78.02468 | 34853 ft | 527 kts | 112° |
| 2026-05-05 21:19 | 41.88573 | -77.93180 | 34844 ft | 527 kts | 112° |
| 2026-05-05 21:20 | 41.86148 | -77.83899 | 34849 ft | 527 kts | 112° |
| 2026-05-05 21:20 | 41.83711 | -77.74626 | 34843 ft | 527 kts | 112° |
| 2026-05-05 21:21 | 41.81264 | -77.65368 | 34834 ft | 527 kts | 112° |
| 2026-05-05 21:21 | 41.78816 | -77.56109 | 34835 ft | 527 kts | 112° |
| 2026-05-05 21:22 | 41.76360 | -77.46853 | 34833 ft | 527 kts | 112° |
| 2026-05-05 21:22 | 41.73914 | -77.37669 | 34830 ft | 527 kts | 112° |
| 2026-05-05 21:23 | 41.71447 | -77.28428 | 34819 ft | 527 kts | 112° |
| 2026-05-05 21:23 | 41.68963 | -77.19194 | 34796 ft | 528 kts | 112° |
| 2026-05-05 21:24 | 41.66471 | -77.09962 | 34794 ft | 528 kts | 112° |
| 2026-05-05 21:24 | 41.63969 | -77.00728 | 34797 ft | 528 kts | 112° |
| 2026-05-05 21:25 | 41.61462 | -76.91498 | 34793 ft | 528 kts | 112° |
| 2026-05-05 21:25 | 41.58950 | -76.82275 | 34787 ft | 528 kts | 112° |
| 2026-05-05 21:26 | 41.56429 | -76.73072 | 34796 ft | 528 kts | 111° |
| 2026-05-05 21:26 | 41.53899 | -76.63871 | 34801 ft | 528 kts | 112° |
| 2026-05-05 21:27 | 41.51365 | -76.54685 | 34797 ft | 528 kts | 112° |
| 2026-05-05 21:27 | 41.48829 | -76.45506 | 34795 ft | 527 kts | 112° |
| 2026-05-05 21:28 | 41.46293 | -76.36356 | 34812 ft | 526 kts | 112° |
| 2026-05-05 21:28 | 41.43751 | -76.27222 | 34806 ft | 525 kts | 112° |
| 2026-05-05 21:29 | 41.41210 | -76.18126 | 34612 ft | 520 kts | 112° |
| 2026-05-05 21:29 | 41.39961 | -76.13673 | 33924 ft | 517 kts | 112° |
| 2026-05-05 21:29 | 41.38706 | -76.09204 | 33306 ft | 502 kts | 112° |
| 2026-05-05 21:30 | 41.37501 | -76.04920 | 32783 ft | 500 kts | 112° |
| 2026-05-05 21:30 | 41.36265 | -76.00545 | 32228 ft | 497 kts | 112° |
| 2026-05-05 21:30 | 41.35065 | -75.96305 | 31672 ft | 495 kts | 112° |
| 2026-05-05 21:30 | 41.33856 | -75.92025 | 31157 ft | 493 kts | 112° |
| 2026-05-05 21:31 | 41.32655 | -75.87773 | 30696 ft | 488 kts | 113° |
| 2026-05-05 21:31 | 41.31460 | -75.83552 | 30114 ft | 486 kts | 112° |
| 2026-05-05 21:31 | 41.30280 | -75.79391 | 29798 ft | 478 kts | 113° |
| 2026-05-05 21:31 | 41.29107 | -75.75278 | 29227 ft | 472 kts | 112° |
| 2026-05-05 21:32 | 41.27952 | -75.71234 | 28511 ft | 464 kts | 112° |
| 2026-05-05 21:32 | 41.26808 | -75.67289 | 28068 ft | 450 kts | 114° |
| 2026-05-05 21:32 | 41.25622 | -75.63509 | 27648 ft | 436 kts | 116° |
| 2026-05-05 21:32 | 41.24408 | -75.59879 | 27234 ft | 425 kts | 117° |
| 2026-05-05 21:33 | 41.23190 | -75.56358 | 26851 ft | 414 kts | 117° |
| 2026-05-05 21:33 | 41.21994 | -75.52921 | 26512 ft | 408 kts | 117° |
| 2026-05-05 21:33 | 41.20815 | -75.49502 | 26142 ft | 406 kts | 117° |
| 2026-05-05 21:33 | 41.19655 | -75.46102 | 25770 ft | 403 kts | 117° |
| 2026-05-05 21:34 | 41.18510 | -75.42723 | 25382 ft | 400 kts | 116° |
| 2026-05-05 21:34 | 41.17376 | -75.39362 | 24999 ft | 397 kts | 116° |
| 2026-05-05 21:34 | 41.16252 | -75.36025 | 24626 ft | 395 kts | 116° |
| 2026-05-05 21:34 | 41.15134 | -75.32703 | 24214 ft | 393 kts | 116° |
| 2026-05-05 21:35 | 41.14024 | -75.29404 | 23817 ft | 391 kts | 116° |
| 2026-05-05 21:35 | 41.12916 | -75.26118 | 23407 ft | 389 kts | 116° |
| 2026-05-05 21:35 | 41.11814 | -75.22849 | 22953 ft | 386 kts | 116° |
| 2026-05-05 21:35 | 41.10722 | -75.19615 | 22553 ft | 383 kts | 116° |
| 2026-05-05 21:36 | 41.09636 | -75.16407 | 22134 ft | 380 kts | 116° |
| 2026-05-05 21:36 | 41.08556 | -75.13226 | 21724 ft | 377 kts | 117° |
| 2026-05-05 21:36 | 41.07484 | -75.10063 | 21311 ft | 375 kts | 117° |
| 2026-05-05 21:36 | 41.06420 | -75.06922 | 20903 ft | 373 kts | 117° |
| 2026-05-05 21:37 | 41.05357 | -75.03803 | 20484 ft | 370 kts | 118° |
| 2026-05-05 21:37 | 41.04293 | -75.00713 | 20085 ft | 368 kts | 117° |
| 2026-05-05 21:37 | 41.03238 | -74.97632 | 19678 ft | 366 kts | 117° |
| 2026-05-05 21:37 | 41.02189 | -74.94563 | 19267 ft | 365 kts | 117° |
| 2026-05-05 21:38 | 41.01147 | -74.91505 | 18860 ft | 364 kts | 117° |
| 2026-05-05 21:38 | 41.00118 | -74.88445 | 18462 ft | 364 kts | 114° |
| 2026-05-05 21:38 | 40.99400 | -74.85228 | 18051 ft | 366 kts | 102° |
| 2026-05-05 21:38 | 40.99011 | -74.81902 | 17615 ft | 365 kts | 100° |
| 2026-05-05 21:39 | 40.98631 | -74.78596 | 17213 ft | 362 kts | 100° |
| 2026-05-05 21:39 | 40.98253 | -74.75351 | 16816 ft | 361 kts | 101° |
| 2026-05-05 21:39 | 40.97868 | -74.72079 | 16414 ft | 359 kts | 101° |
| 2026-05-05 21:39 | 40.97483 | -74.68818 | 15977 ft | 359 kts | 101° |
| 2026-05-05 21:40 | 40.97099 | -74.65578 | 15729 ft | 354 kts | 101° |
| 2026-05-05 21:40 | 40.96717 | -74.62373 | 15365 ft | 352 kts | 101° |
| 2026-05-05 21:40 | 40.96336 | -74.59171 | 14980 ft | 352 kts | 101° |
| 2026-05-05 21:40 | 40.95959 | -74.55978 | 14592 ft | 351 kts | 100° |
| 2026-05-05 21:41 | 40.95584 | -74.52790 | 14201 ft | 351 kts | 101° |
| 2026-05-05 21:41 | 40.95205 | -74.49607 | 13820 ft | 350 kts | 101° |
| 2026-05-05 21:41 | 40.94823 | -74.46423 | 13405 ft | 350 kts | 100° |
| 2026-05-05 21:41 | 40.94444 | -74.43245 | 12998 ft | 349 kts | 101° |
| 2026-05-05 21:42 | 40.94066 | -74.40077 | 12613 ft | 348 kts | 101° |
| 2026-05-05 21:42 | 40.93689 | -74.36925 | 12238 ft | 347 kts | 101° |
| 2026-05-05 21:42 | 40.93310 | -74.33762 | 11874 ft | 348 kts | 101° |
| 2026-05-05 21:42 | 40.92931 | -74.30608 | 11518 ft | 346 kts | 102° |
| 2026-05-05 21:43 | 40.92554 | -74.27478 | 11176 ft | 344 kts | 102° |
| 2026-05-05 21:43 | 40.92178 | -74.24373 | 10822 ft | 341 kts | 102° |
| 2026-05-05 21:43 | 40.91929 | -74.22334 | 10607 ft | 338 kts | 102° |
| 2026-05-05 21:43 | 40.91427 | -74.18247 | 10157 ft | 335 kts | 102° |
| 2026-05-05 21:44 | 40.91056 | -74.15218 | 9819 ft | 333 kts | 102° |
| 2026-05-05 21:44 | 40.90740 | -74.13251 | 9590 ft | 329 kts | 110° |
| 2026-05-05 21:44 | 40.89882 | -74.10495 | 9224 ft | 321 kts | 124° |
| 2026-05-05 21:44 | 40.88302 | -74.07211 | 8735 ft | 315 kts | 128° |
| 2026-05-05 21:45 | 40.87513 | -74.05602 | 8500 ft | 314 kts | 128° |
| 2026-05-05 21:45 | 40.86331 | -74.03190 | 8128 ft | 312 kts | 128° |
| 2026-05-05 21:45 | 40.85158 | -74.00789 | 7788 ft | 310 kts | 128° |
| 2026-05-05 21:45 | 40.83994 | -73.98403 | 7415 ft | 309 kts | 129° |
| 2026-05-05 21:46 | 40.82830 | -73.96023 | 7065 ft | 308 kts | 129° |
| 2026-05-05 21:46 | 40.81671 | -73.93656 | 6741 ft | 306 kts | 129° |
| 2026-05-05 21:46 | 40.80518 | -73.91302 | 6399 ft | 304 kts | 129° |
| 2026-05-05 21:46 | 40.79374 | -73.88966 | 6058 ft | 302 kts | 129° |
| 2026-05-05 21:47 | 40.78263 | -73.86612 | 5706 ft | 304 kts | 122° |
| 2026-05-05 21:47 | 40.77753 | -73.83882 | 5377 ft | 312 kts | 97° |
| 2026-05-05 21:47 | 40.77791 | -73.81014 | 5029 ft | 314 kts | 88° |
| 2026-05-05 21:47 | 40.78071 | -73.78161 | 4687 ft | 313 kts | 84° |
| 2026-05-05 21:48 | 40.78433 | -73.75352 | 4324 ft | 304 kts | 83° |
| 2026-05-05 21:48 | 40.78782 | -73.72679 | 3971 ft | 288 kts | 84° |
| 2026-05-05 21:48 | 40.78757 | -73.70161 | 3618 ft | 262 kts | 116° |
| 2026-05-05 21:48 | 40.77796 | -73.68328 | 3278 ft | 233 kts | 154° |
| 2026-05-05 21:49 | 40.76358 | -73.67775 | 2940 ft | 210 kts | 188° |
| 2026-05-05 21:49 | 40.74908 | -73.67907 | 2473 ft | 209 kts | 196° |
| 2026-05-05 21:49 | 40.73588 | -73.68507 | 2080 ft | 192 kts | 208° |
| 2026-05-05 21:49 | 40.72430 | -73.69320 | 1812 ft | 186 kts | 211° |
| 2026-05-05 21:50 | 40.71356 | -73.70141 | 1583 ft | 166 kts | 211° |
| 2026-05-05 21:50 | 40.70428 | -73.70863 | 1390 ft | 143 kts | 211° |
| 2026-05-05 21:50 | 40.69606 | -73.71505 | 1188 ft | 135 kts | 210° |
| 2026-05-05 21:50 | 40.68805 | -73.72136 | 1009 ft | 132 kts | 210° |
| 2026-05-05 21:51 | 40.68019 | -73.72753 | 815 ft | 132 kts | 208° |
| 2026-05-05 21:51 | 40.67239 | -73.73364 | 634 ft | 130 kts | 207° |
| 2026-05-05 21:51 | 40.66466 | -73.73968 | 518 ft | 126 kts | 206° |
| 2026-05-05 21:51 | 40.65695 | -73.74574 | 375 ft | 128 kts | 206° |
| 2026-05-05 21:52 | 40.64165 | -73.75769 | 40 ft | 127 kts | 208° |
| 2026-05-05 21:52 | 40.63500 | -73.76293 | 28 ft | 86 kts | 210° |
| 2026-05-05 21:52 | 40.63233 | -73.76494 | 22 ft | 15 kts | 211° |
| 2026-05-05 21:53 | 40.63146 | -73.76563 | 20 ft | 15 kts | 211° |
| 2026-05-05 21:53 | 40.63061 | -73.76642 | 20 ft | 14 kts | 229° |
| 2026-05-05 21:53 | 40.63002 | -73.76734 | 23 ft | 12 kts | 231° |
| 2026-05-05 21:53 | 40.62955 | -73.76831 | 21 ft | 13 kts | 240° |
| 2026-05-05 21:54 | 40.62925 | -73.76939 | 22 ft | 13 kts | 271° |
| 2026-05-05 21:54 | 40.62964 | -73.77048 | 23 ft | 14 kts | 301° |
| 2026-05-05 21:54 | 40.63013 | -73.77151 | 25 ft | 12 kts | 301° |
| 2026-05-05 21:54 | 40.63055 | -73.77246 | 27 ft | 12 kts | 300° |
| 2026-05-05 21:55 | 40.63099 | -73.77345 | 27 ft | 13 kts | 300° |
| 2026-05-05 21:55 | 40.63146 | -73.77448 | 29 ft | 13 kts | 302° |
| 2026-05-05 21:55 | 40.63194 | -73.77552 | 30 ft | 14 kts | 299° |
| 2026-05-05 21:55 | 40.63248 | -73.77674 | 28 ft | 17 kts | 301° |
| 2026-05-05 21:56 | 40.63310 | -73.77809 | 27 ft | 16 kts | 302° |
| 2026-05-05 21:56 | 40.63403 | -73.77792 | 26 ft | 16 kts | 41° |
| 2026-05-05 21:56 | 40.63510 | -73.77705 | 22 ft | 20 kts | 30° |
| 2026-05-05 21:56 | 40.63640 | -73.77603 | 20 ft | 23 kts | 31° |
| 2026-05-05 21:57 | 40.63781 | -73.77493 | 19 ft | 24 kts | 30° |
| 2026-05-05 21:57 | 40.63926 | -73.77380 | 22 ft | 24 kts | 31° |
| 2026-05-05 21:57 | 40.64056 | -73.77277 | 24 ft | 15 kts | 30° |
| 2026-05-05 21:57 | 40.64146 | -73.77207 | 25 ft | 15 kts | 31° |
| 2026-05-05 21:58 | 40.64247 | -73.77129 | 23 ft | 18 kts | 30° |
| 2026-05-05 21:58 | 40.64351 | -73.77047 | 25 ft | 12 kts | 31° |
| 2026-05-05 21:58 | 40.64412 | -73.77012 | 21 ft | 8 kts | 349° |
| 2026-05-05 21:58 | 40.64427 | -73.77062 | 22 ft | 6 kts | 283° |
| 2026-05-05 21:59 | 40.64437 | -73.77118 | 24 ft | 7 kts | 283° |
| 2026-05-05 21:59 | 40.64458 | -73.77197 | 23 ft | 11 kts | 303° |
| 2026-05-05 21:59 | 40.64473 | -73.77296 | 23 ft | 12 kts | 270° |
| 2026-05-05 21:59 | 40.64472 | -73.77390 | 23 ft | 6 kts | 269° |
| 2026-05-05 22:00 | 40.64472 | -73.77436 | 23 ft | 3 kts | 269° |
| 2026-05-05 22:00 | 40.64474 | -73.77442 | 26 ft | 19 kts | 337° |
| 2026-05-05 22:00 | 40.64540 | -73.77436 | 23 ft | 0 kts | 355° |
| 2026-05-05 22:00 | 40.65007 | -73.77496 | 144 ft | 348 kts | 124° |
| 2026-05-05 22:01 | 40.66238 | -73.80012 | 273 ft | 0 kts | 121° |
| 2026-05-05 22:01 | 40.65684 | -73.78804 | 88 ft | 237 kts | 127° |